Terminal Aerodrome Forecast
Issued by NWS

Home | Current Version | Previous Version | Text Only | Print | Product List | Glossary On
Versions: 1 2 3 4 5 6 7 8 9 10 11 12
000
FTUS42 TJSJ 220500
TAFKPK
TAF
TKPK 220535Z 2206/2306 07013KT P6SM VCSH FEW020
      TEMPO 2207/2211 5SM SHRA BKN018
      AMD NOT SKED TIL 221100=

USA.gov is the U.S. government's official web portal to all federal, state and local government web resources and services.